Terminal Aerodrome Forecast
Issued by NWS

Home | Current Version | Previous Version | Text Only | Print | Product List | Glossary On
Versions: 1 2 3 4 5 6 7 8 9 10 11 12 13 14 15 16 17 18 19 20 21 22 23 24 25 26 27
000
FTUS41 KALY 060707 AAA
TAFPSF
TAF AMD
KPSF 060707Z 0607/0706 00000KT 1SM BR SCT060
      TEMPO 0608/0612 1/2SM FG VV002
     FM061300 VRB03KT P6SM FEW025 SCT200
     FM061800 24005KT P6SM SCT035 SCT200
     FM070000 VRB03KT P6SM SCT030 BKN060=

USA.gov is the U.S. government's official web portal to all federal, state and local government web resources and services.